Historyczne dane pomiarowe

Dodano dane terminowe – wersja testowa.

Dane z okresu 1951-2019

Wersja bazy: 1.34 [2019-03-16, lista zmian], aktualizacja planowana na 2019-04-15

Dane meteo z obszaru Polski uzyskane na podstawie danych udostępnionych przez Instytut Meteorologii i Gospodarki Wodnej – Państwowy Instytut Badawczy.

 

Wybierz Datę:    

       

TemperaturaWilgotnośćWiatrCiśnienieOpadyŚniegCzas trwania zjawisk
 Stacja t tx tn tng RH VA  wxwx mslp ppp RRR   cm mm wxwxwxwxwxwxwx
1994-08-14 14.4 19.3 12.3 9.9 89.3- 7.0 0.3---- 1.0------------
1994-08-13 16.3 22.8 11.7 10.8 96.8- 7.0 1.7---- 1.0------------
1994-08-12 15.5 22.8 11.7 10.4 99.3- 6.3 1.3---- 3.0------------
1994-08-11 19.5 29.7 12.7 10.9 85.0- 5.7 1.0---- 9.2------------
1994-08-10 19.3 26.3 15.9 11.9 83.3- 4.0 1.7---- 0.0------------
1994-08-09 19.8 28.7 14.3 12.8 78.8- 7.0 2.3---- 2.0------------
1994-08-08 21.3 30.2 16.4 13.9 80.3- 7.0 2.0---- 3.0------------
1994-08-07 19.2 28.2 12.2 10.0 81.5- 5.3 0.7---- 0.0------------
1994-08-06 18.8 30.2 11.3 9.3 81.8- 3.3 1.7---- 0.0------------
1994-08-05 20.1 27.7 13.8 13.2 76.0- 1.0 1.7---- 0.0------------
1994-08-04 18.7 26.8 13.8 12.6 90.3- 4.3 2.7---- 1.0------------
1994-08-03 20.0 29.2 13.8 12.4 74.0- 5.3 2.3---- 18.2------------
1994-08-02 20.5 31.2 10.7 8.4 63.3- 1.7 2.0---- 0.0------------
1994-08-01 21.5 31.2 14.3 12.4 74.0- 2.7 1.7---- 0.0------------
1994-07-31 21.3 31.2 12.7 11.4 71.0- 1.3 1.0---- 0.0------------
1994-07-30 20.9 31.2 11.6 10.4 75.0- 0.7 1.3---- 0.0------------
1994-07-29 20.2 31.2 10.7 8.9 75.0- 1.3 1.3---- 0.0------------
1994-07-28 20.5 30.2 11.7 10.6 76.0- 1.3 1.0---- 0.0------------
1994-07-27 20.0 30.2 11.7 10.4 73.3- 1.3 1.0---- 0.0------------
1994-07-26 19.3 31.2 10.7 10.7 69.8- 2.3 0.7---- 0.0------------
1994-07-25 19.2 29.2 10.7 8.9 69.8- 1.7 1.0---- 0.0------------
1994-07-24 18.1 27.7 8.7 7.5 73.0- 1.3 2.7---- 0.0------------
1994-07-23 17.1 26.8 6.8 5.5 77.8- 1.0 1.3---- 0.0------------
1994-07-22 16.2 25.8 6.8 6.7 70.3- 1.0 1.3---- 0.0------------
1994-07-21 14.2 24.3 6.8 3.6 80.0- 1.7 1.7---- 0.0------------
1994-07-20 14.4 22.8 6.0 5.8 70.3- 3.7 3.3---- 0.0------------
1994-07-19 18.2 23.8 12.7 11.9 78.8- 7.3 3.3---- 0.0------------
1994-07-18 19.3 24.3 14.7 13.4 83.5- 7.0 3.7---- 0.2------------
1994-07-17 18.7 27.2 12.3 11.9 91.0- 5.3 2.0---- 0.4------------
1994-07-16 19.2 28.7 12.7 12.4 82.0- 2.7 1.7---- 0.0------------
1994-07-15 17.9 25.9 11.7 9.9 85.0- 7.3 2.7---- 0.0------------
1994-07-14 17.3 25.8 8.5 8.4 75.0- 5.7 2.3---- 0.0------------
1994-07-13 15.7 25.3 7.5 7.5 86.5- 4.0 2.3---- 0.1------------
1994-07-12 18.4 24.3 9.7 9.7 74.5- 6.0 3.7---- 0.0------------
1994-07-11 15.4 18.2 9.7 9.4 90.0- 8.0 4.3---- 0.0------------
1994-07-10 14.0 18.8 9.3 9.2 88.8- 7.7 3.0---- 5.1------------
1994-07-09 13.0 20.3 8.2 7.5 86.5- 8.0 3.3---- 3.2------------
1994-07-08 15.1 20.8 8.7 8.7 89.5- 7.7 2.7---- 8.0------------
1994-07-07 17.7 25.3 8.2 8.0 74.5- 4.0 4.0---- 1.0------------
1994-07-06 18.7 23.3 11.2 10.4 61.8- 1.3 2.7---- 0.0------------
1994-07-05 18.1 26.8 9.7 8.4 76.3- 4.0 2.7---- 0.0------------
1994-07-04 16.6 25.8 8.2 6.5 66.5- 1.3 2.3---- 0.0------------
1994-07-03 15.2 25.3 6.3 4.1 77.3- 0.0 3.0---- 0.0------------
1994-07-02 15.8 22.8 6.3 6.3 75.3- 0.7 3.3---- 0.0------------
1994-07-01 18.5 21.9 16.9 16.4 70.3- 4.0 2.3---- 0.0------------
1994-06-30 21.7 29.2 16.4 15.4 84.8- 4.3 2.0---- 17.0------------
1994-06-29 21.1 30.2 12.2 9.9 83.0- 1.0 0.7---- 0.0------------
1994-06-28 22.4 29.2 15.3 12.9 76.3- 1.0 1.7---- 0.0------------
1994-06-27 21.3 29.7 14.3 10.4 74.5- 3.3 1.7---- 0.0------------
1994-06-26 16.2 26.3 6.8 4.6 64.8- 0.0 2.7---- 0.0------------
1994-06-25 13.2 21.8 2.9 0.7 68.0- 0.0 2.3---- 0.0------------
1994-06-24 12.8 19.8 2.9 1.6 63.8- 1.0 3.7---- 0.0------------
1994-06-23 17.2 20.9 14.8 12.9 68.8- 4.3 4.7---- 0.0------------
1994-06-22 16.1 25.3 4.8 1.6 71.8- 3.7 3.7---- 0.0------------
1994-06-21 13.2 18.8 5.3 4.6 77.0- 0.0 2.0---- 0.0------------
1994-06-20 16.0 21.8 9.3 0.7 80.3- 2.3 1.7---- 0.0------------
1994-06-19 14.9 21.3 9.7 2.6 84.5- 5.3 2.0---- 0.0------------
1994-06-18 9.6 17.2 0.5 -1.4 77.0- 4.3 5.0---- 3.2------------
1994-06-17 9.9 14.6 7.7 2.6 80.8- 6.7 2.7---- 4.2------------
1994-06-16 11.6 19.3 4.8 -1.4 87.5- 6.3 2.0---- 7.2------------
300.1 ms

 

Źródłem pochodzenia danych jest Instytut Meteorologii i Gospodarki Wodnej – Państwowy Instytut Badawczy. Dane Instytutu Meteorologii i Gospodarki Wodnej – Państwowego Instytutu Badawczego zostały przetworzone.

Dane źródłowe można odnaleźć na stronie https://dane.imgw.pl